createdAt,value
2023-03-07T00:01:03.639Z,28.63
2023-03-07T00:03:53.264Z,30.42
2023-03-07T00:06:40.441Z,29.85
2023-03-07T00:09:27.755Z,30.38
2023-03-07T00:12:15.578Z,25.30
2023-03-07T00:15:02.836Z,35.58
2023-03-07T00:17:52.225Z,29.08
2023-03-07T00:20:41.521Z,26.58
2023-03-07T00:23:33.536Z,26.80
2023-03-07T00:26:25.828Z,28.13
2023-03-07T00:29:13.226Z,28.02
2023-03-07T00:32:00.423Z,32.35
2023-03-07T00:34:50.068Z,24.15
2023-03-07T00:37:37.220Z,27.38
2023-03-07T00:40:24.961Z,25.77
2023-03-07T00:43:12.279Z,26.42
2023-03-07T00:46:00.067Z,27.70
2023-03-07T00:48:48.095Z,25.52
2023-03-07T00:51:37.512Z,28.13
2023-03-07T00:54:24.727Z,27.50
2023-03-07T00:57:11.997Z,26.10
2023-03-07T01:00:01.623Z,25.45
2023-03-07T01:02:50.721Z,28.80
2023-03-07T01:05:41.353Z,24.33
2023-03-07T01:08:28.548Z,24.98
2023-03-07T01:11:16.213Z,25.88
2023-03-07T01:14:05.385Z,29.05
2023-03-07T01:16:53.697Z,24.67
2023-03-07T01:19:44.119Z,27.77
2023-03-07T01:22:31.660Z,29.10
2023-03-07T01:25:20.372Z,26.23
2023-03-07T01:28:10.683Z,24.70
2023-03-07T01:31:03.670Z,23.88
2023-03-07T01:33:52.567Z,26.70
2023-03-07T01:36:40.216Z,26.33
2023-03-07T01:39:28.940Z,23.77
2023-03-07T01:42:16.145Z,26.35
2023-03-07T01:45:12.500Z,31.20
2023-03-07T01:47:59.660Z,25.77
2023-03-07T01:50:47.598Z,25.45
2023-03-07T01:53:34.945Z,24.77
2023-03-07T01:56:22.851Z,25.40
2023-03-07T01:59:11.136Z,24.35
2023-03-07T02:02:03.162Z,25.77
2023-03-07T02:05:16.002Z,27.40
2023-03-07T02:08:04.328Z,25.50
2023-03-07T02:10:52.373Z,26.25
2023-03-07T02:13:42.355Z,23.55
2023-03-07T02:16:29.859Z,26.17
2023-03-07T02:19:26.848Z,25.25
2023-03-07T02:22:18.200Z,28.45
2023-03-07T02:25:18.343Z,26.48
2023-03-07T02:28:08.191Z,26.48
2023-03-07T02:30:55.346Z,29.25
2023-03-07T02:33:43.203Z,28.33
2023-03-07T02:36:34.252Z,26.13
2023-03-07T02:39:24.051Z,23.10
2023-03-07T02:42:21.546Z,24.13
2023-03-07T02:45:12.172Z,30.30
2023-03-07T02:47:59.430Z,27.60
2023-03-07T02:50:48.427Z,23.27
2023-03-07T02:53:37.699Z,26.55
2023-03-07T02:56:24.926Z,26.13
2023-03-07T02:59:12.071Z,27.17
2023-03-07T03:01:59.391Z,28.13
2023-03-07T03:04:52.800Z,25.08
2023-03-07T03:07:40.061Z,30.30
2023-03-07T03:10:27.265Z,29.85
2023-03-07T03:13:17.150Z,26.67
2023-03-07T03:16:05.655Z,28.70
2023-03-07T03:18:52.904Z,31.23
2023-03-07T03:21:40.260Z,30.48
2023-03-07T03:24:27.582Z,30.27
2023-03-07T03:27:19.314Z,28.77
2023-03-07T03:30:11.354Z,24.03
2023-03-07T03:33:02.308Z,25.25
2023-03-07T03:35:49.718Z,27.58
2023-03-07T03:38:37.470Z,30.35
2023-03-07T03:41:24.948Z,28.45
2023-03-07T03:44:13.554Z,35.70
2023-03-07T03:47:01.009Z,30.00
2023-03-07T03:49:48.640Z,31.17
2023-03-07T03:52:38.462Z,26.23
2023-03-07T03:55:25.831Z,29.48
2023-03-07T03:58:13.027Z,30.63
2023-03-07T04:01:07.786Z,30.25
2023-03-07T04:03:55.561Z,31.83
2023-03-07T04:06:43.284Z,33.67
2023-03-07T04:09:31.264Z,27.52
2023-03-07T04:12:22.573Z,33.95
2023-03-07T04:15:10.300Z,29.88
2023-03-07T04:17:57.487Z,26.42
2023-03-07T04:20:47.716Z,28.38
2023-03-07T04:23:35.118Z,26.95
2023-03-07T04:26:22.463Z,32.65
2023-03-07T04:29:10.309Z,26.83
2023-03-07T04:31:57.498Z,32.72
2023-03-07T04:34:44.901Z,33.53
2023-03-07T04:37:34.141Z,31.27
2023-03-07T04:40:23.518Z,33.47
2023-03-07T04:43:10.849Z,28.67
2023-03-07T04:46:00.939Z,24.98
2023-03-07T04:48:48.329Z,26.40
2023-03-07T04:51:37.683Z,28.02
2023-03-07T04:54:24.912Z,24.92
2023-03-07T05:00:13.827Z,28.55
2023-03-07T05:03:04.290Z,26.73
2023-03-07T05:05:54.322Z,24.27
2023-03-07T05:08:41.660Z,25.00
2023-03-07T05:11:28.922Z,24.27
2023-03-07T05:14:16.075Z,25.15
2023-03-07T05:17:03.336Z,27.73
2023-03-07T05:19:50.409Z,24.75
2023-03-07T05:22:38.007Z,27.02
2023-03-07T05:25:25.231Z,30.00
2023-03-07T05:28:17.127Z,23.27
2023-03-07T05:31:05.156Z,27.20
2023-03-07T05:33:52.749Z,27.10
2023-03-07T05:36:39.972Z,25.38
2023-03-07T05:39:27.815Z,22.83
2023-03-07T05:42:16.853Z,23.60
2023-03-07T05:45:05.881Z,24.85
2023-03-07T05:47:53.335Z,22.60
2023-03-07T05:50:45.397Z,23.50
2023-03-07T05:53:35.656Z,22.65
2023-03-07T05:56:23.242Z,26.08
2023-03-07T05:59:12.976Z,20.15
2023-03-07T06:02:00.298Z,26.65
2023-03-07T06:04:47.571Z,23.08
2023-03-07T06:07:34.910Z,19.77
2023-03-07T06:10:27.015Z,24.85
2023-03-07T06:13:22.338Z,26.02
2023-03-07T06:16:09.565Z,21.65
2023-03-07T06:18:59.388Z,21.10
2023-03-07T06:21:46.693Z,23.35
2023-03-07T06:24:33.803Z,19.35
2023-03-07T06:27:21.090Z,21.77
2023-03-07T06:30:47.276Z,24.40
2023-03-07T06:33:34.618Z,19.98
2023-03-07T06:36:25.183Z,20.33
2023-03-07T06:39:44.552Z,28.48
2023-03-07T06:42:47.390Z,21.38
2023-03-07T06:45:48.799Z,21.15
2023-03-07T06:49:20.988Z,27.83
2023-03-07T06:53:32.461Z,36.13
2023-03-07T07:04:25.407Z,19.23
2023-03-07T07:07:21.247Z,21.98
2023-03-07T14:41:53.810Z,10.23
2023-03-07T16:11:30.086Z,9.38
2023-03-07T16:14:41.377Z,12.32
2023-03-07T16:22:15.890Z,9.35
2023-03-07T16:25:03.777Z,12.95
2023-03-07T16:27:56.895Z,14.38
2023-03-07T16:31:01.077Z,14.70
2023-03-07T16:33:51.070Z,13.77
2023-03-07T16:36:38.559Z,14.60
2023-03-07T16:39:25.905Z,15.45
2023-03-07T16:42:23.516Z,12.52
2023-03-07T16:45:25.743Z,11.93
2023-03-07T16:48:15.059Z,10.52
2023-03-07T16:51:03.429Z,12.05
2023-03-07T16:53:51.601Z,15.93
2023-03-07T16:56:42.101Z,14.27
2023-03-07T16:59:37.399Z,12.27
2023-03-07T17:02:28.269Z,14.23
2023-03-07T17:05:36.389Z,22.67
2023-03-07T17:08:25.777Z,19.33
2023-03-07T17:11:25.230Z,22.42
2023-03-07T17:14:14.760Z,17.25
2023-03-07T17:17:02.071Z,14.52
2023-03-07T17:19:50.133Z,15.48
2023-03-07T17:22:37.520Z,20.80
2023-03-07T17:25:33.367Z,15.38
2023-03-07T17:28:22.945Z,17.00
2023-03-07T17:31:18.713Z,14.02
2023-03-07T17:34:11.903Z,17.02
2023-03-07T17:37:00.547Z,18.92
2023-03-07T17:39:50.114Z,17.38
2023-03-07T17:42:38.429Z,13.45
2023-03-07T17:45:30.926Z,19.90
2023-03-07T17:48:18.564Z,14.25
2023-03-07T17:51:14.513Z,15.13
2023-03-07T17:54:05.494Z,21.05
2023-03-07T17:56:52.775Z,16.95
2023-03-07T17:59:40.093Z,15.65
2023-03-07T18:02:27.433Z,15.63
2023-03-07T18:05:14.770Z,19.73
2023-03-07T18:08:05.290Z,14.73
2023-03-07T18:10:52.606Z,18.08
2023-03-07T18:13:40.505Z,14.27
2023-03-07T18:16:30.362Z,15.35
2023-03-07T18:19:26.209Z,18.65
2023-03-07T18:22:16.192Z,19.27
2023-03-07T18:25:05.153Z,19.90
2023-03-07T18:27:52.623Z,18.80
2023-03-07T18:30:39.975Z,19.17
2023-03-07T18:33:28.556Z,17.90
2023-03-07T18:36:16.806Z,19.50
2023-03-07T18:39:05.141Z,21.60
2023-03-07T18:41:52.469Z,16.48
2023-03-07T18:44:41.018Z,17.90
2023-03-07T18:47:28.242Z,22.17
2023-03-07T18:50:17.682Z,19.23
2023-03-07T18:53:05.971Z,14.20
2023-03-07T18:55:53.360Z,15.45
2023-03-07T18:58:47.444Z,16.23
2023-03-07T19:01:37.761Z,16.75
2023-03-07T19:04:25.098Z,16.95
2023-03-07T19:07:13.937Z,16.35
2023-03-07T19:10:01.536Z,14.02
2023-03-07T19:12:49.349Z,18.23
2023-03-07T19:15:39.353Z,16.05
2023-03-07T19:18:26.744Z,15.15
2023-03-07T19:21:23.094Z,17.63
2023-03-07T19:24:13.516Z,17.35
2023-03-07T19:27:00.933Z,15.85
2023-03-07T19:29:48.444Z,13.73
2023-03-07T19:32:42.963Z,16.10
2023-03-07T19:35:31.930Z,16.08
2023-03-07T19:38:27.578Z,16.23
2023-03-07T19:41:18.836Z,19.27
2023-03-07T19:44:12.431Z,21.58
2023-03-07T19:47:00.228Z,19.48
2023-03-07T19:49:50.067Z,18.85
2023-03-07T19:52:37.536Z,16.98
2023-03-07T20:00:46.713Z,24.13
2023-03-07T20:03:37.011Z,22.48
2023-03-07T20:06:30.112Z,21.70
2023-03-07T20:09:18.139Z,17.42
2023-03-07T20:12:10.364Z,16.92
2023-03-07T20:14:58.332Z,14.50
2023-03-07T20:17:46.591Z,13.73
2023-03-07T20:20:39.800Z,14.02
2023-03-07T20:23:27.159Z,19.40
2023-03-07T20:26:28.292Z,12.95
2023-03-07T20:29:15.844Z,10.27
2023-03-07T20:32:05.637Z,11.55
2023-03-07T20:34:53.736Z,10.63
2023-03-07T20:37:43.401Z,10.88
2023-03-07T20:40:31.236Z,17.17
2023-03-07T20:43:19.535Z,12.93
2023-03-07T20:46:12.642Z,9.60
2023-03-07T20:49:04.715Z,10.40
2023-03-07T20:51:56.999Z,10.43
2023-03-07T20:54:48.608Z,10.20
2023-03-07T20:57:38.947Z,12.68
2023-03-07T21:00:26.626Z,12.43
2023-03-07T21:03:16.526Z,11.63
2023-03-07T21:06:05.342Z,11.25
2023-03-07T21:08:52.874Z,11.13
2023-03-07T21:11:52.101Z,11.57
2023-03-07T21:14:39.711Z,11.18
2023-03-07T21:17:31.673Z,10.57
2023-03-07T21:20:19.220Z,13.18
2023-03-07T21:23:15.724Z,11.45
2023-03-07T21:26:10.073Z,10.65
2023-03-07T21:28:58.827Z,11.82
2023-03-07T21:31:46.183Z,13.00
2023-03-07T21:34:37.281Z,10.27
2023-03-07T21:37:27.642Z,13.38
2023-03-07T21:40:16.047Z,12.32
2023-03-07T21:43:03.391Z,14.85
2023-03-07T21:45:51.449Z,11.68
2023-03-07T21:48:39.233Z,10.80
2023-03-07T21:51:26.673Z,15.43
2023-03-07T21:54:15.375Z,14.13
2023-03-07T21:57:04.359Z,14.35
2023-03-07T21:59:51.726Z,16.30
2023-03-07T22:02:43.529Z,15.02
2023-03-07T22:05:31.212Z,17.45
2023-03-07T22:08:20.419Z,13.80
2023-03-07T22:11:10.650Z,14.27
2023-03-07T22:13:57.903Z,22.88
2023-03-07T22:16:45.440Z,17.02
2023-03-07T22:19:32.899Z,15.48
2023-03-07T22:22:20.943Z,16.65
2023-03-07T22:25:08.767Z,17.00
2023-03-07T22:27:58.400Z,18.27
2023-03-07T22:30:54.610Z,16.65
2023-03-07T22:33:42.030Z,20.83
2023-03-07T22:36:29.449Z,19.23
2023-03-07T22:39:19.407Z,16.58
2023-03-07T22:42:07.025Z,17.80
2023-03-07T22:44:57.507Z,18.45
2023-03-07T22:47:44.786Z,22.67
2023-03-07T22:50:32.086Z,19.80
2023-03-07T22:53:26.971Z,17.08
2023-03-07T22:56:25.498Z,18.83
2023-03-07T22:59:12.868Z,22.50
2023-03-07T23:02:02.374Z,18.85
2023-03-07T23:04:52.908Z,18.13
2023-03-07T23:07:40.292Z,18.77
2023-03-07T23:10:31.510Z,19.45
2023-03-07T23:13:25.963Z,19.83
2023-03-07T23:16:16.006Z,19.48
2023-03-07T23:19:05.046Z,21.60
2023-03-07T23:21:52.457Z,20.13
2023-03-07T23:24:42.195Z,19.83
2023-03-07T23:27:32.295Z,20.45
2023-03-07T23:30:20.315Z,19.50
2023-03-07T23:33:07.949Z,20.95
2023-03-07T23:35:59.502Z,18.80
2023-03-07T23:38:46.902Z,21.88
2023-03-07T23:41:39.208Z,29.67
2023-03-07T23:44:26.550Z,22.42
2023-03-07T23:47:16.311Z,24.00
2023-03-07T23:50:03.858Z,21.48
2023-03-07T23:52:51.107Z,24.88
2023-03-07T23:55:41.614Z,18.67
2023-03-07T23:58:31.048Z,19.52
